KMEM/MEM METAR and TAF weather

Enter ICAO airport designator
Station Type Date Time Source
KMEM METAR 2019/09/20 09:54 UTC NOAA

KMEM 200954Z 14008KT 10SM FEW065 BKN160 25/22 A3008 RMK AO2 SLP181 T02500222 $


Station Type Date Time Source
KMEM Decoded METAR 2019/09/20 09:54 UTC NOAA

MEMPHIS INTERNATIONAL AIRPORT , TN, United States (KMEM) 35-02N 089-59W 86M
Sep 20, 2019 - 05:54 AM EDT / 2019.09.20 0954 UTC
Wind: from the SE (140 degrees) at 9 MPH (8 KT):0
Visibility: 10 mile(s):0
Sky conditions: mostly cloudy
Temperature: 77.0 F (25.0 C)
Dew Point: 72.0 F (22.2 C)
Relative Humidity: 84%
Pressure (altimeter): 30.08 in. Hg (1018 hPa)
ob: KMEM 200954Z 14008KT 10SM FEW065 BKN160 25/22 A3008 RMK AO2 SLP181 T02500222
cycle: 10

Station Type Date Time Source
KMEM TAF 2019/09/20 09:59 UTC NOAA

TAF
AMD KMEM 200859Z 2009/2112 15007KT P6SM SCT040 BKN150
FM201300 16010KT P6SM OVC050
FM201600 17009KT P6SM SCT050 BKN150
FM210000 17007KT P6SM BKN250

Example: see airport list